San Ramon, California
Current Conditions -  °F | °C
As of 1:34 AM on Saturday 20 Dec 2014 (Local Time) from KLVK Reporting Station
Light Rain Light Rain  
Wind Chill: 57°   Ceiling: 3300
Heat Index: 57°   Visibility: 3mi
Dew Point: 54°   Wind: 0mph
Humidity: 88%   Direction: NA
Pressure: 30.13"   Gusts: NA
Location:  37.78°N, 121.96°W
Report Text: KLVK 200934Z AUTO 00000KT 3SM -RA BR SCT009 SCT015 OVC033 14/12 A3013 RMK AO2 RAB13 P0001
Loading
Personal Weather Stations






























Interactive Weather Map New forecast layout! Learn more

10-Day Weather Forecast

Advertisements
Track Severe Weather on mobile